Time;durP1;ratioP1;P1;durP2;ratioP2;P2;SDS_P1;SDS_P2;PMS_P1;PMS_P2;Temp;Humidity;BMP_temperature;BMP_pressure;BME280_temperature;BME280_humidity;BME280_pressure;Samples;Min_cycle;Max_cycle;Signal;HPM_P1;HPM_P2
2021/03/20 00:00:35;;;;;;;1.92;1.02;;;8.10;68.60;;;;;;4948280;28;20074;-76
2021/03/20 00:03:03;;;;;;;2.13;1.10;;;8.20;68.80;;;;;;4944403;28;20039;-76
2021/03/20 00:05:30;;;;;;;1.77;0.90;;;8.20;69.00;;;;;;4942817;28;20552;-76
2021/03/20 00:07:59;;;;;;;1.85;1.23;;;8.10;69.10;;;;;;4943092;28;20054;-76
2021/03/20 00:10:27;;;;;;;1.67;1.00;;;8.10;69.30;;;;;;4944283;28;20138;-76
2021/03/20 00:12:55;;;;;;;2.17;0.93;;;8.10;69.40;;;;;;4936611;28;20505;-77
2021/03/20 00:15:25;;;;;;;1.95;1.20;;;8.10;69.70;;;;;;4938165;28;20043;-77
2021/03/20 00:17:53;;;;;;;1.98;0.90;;;8.10;69.90;;;;;;4941940;28;20538;-77
2021/03/20 00:20:23;;;;;;;2.45;1.05;;;8.10;69.90;;;;;;4953340;28;20090;-76
2021/03/20 00:22:50;;;;;;;1.17;0.80;;;8.10;70.00;;;;;;4942104;28;20134;-76
2021/03/20 00:25:19;;;;;;;2.10;1.10;;;8.10;70.30;;;;;;4941335;28;20143;-76
2021/03/20 00:27:46;;;;;;;2.08;0.98;;;8.00;70.40;;;;;;4943108;28;20058;-76
2021/03/20 00:30:14;;;;;;;2.65;0.93;;;8.00;70.60;;;;;;4940310;28;20039;-76
2021/03/20 00:32:42;;;;;;;1.95;0.93;;;8.00;70.70;;;;;;4944732;28;20158;-76
2021/03/20 00:35:12;;;;;;;2.53;0.90;;;7.90;70.90;;;;;;4941491;28;20044;-77
2021/03/20 00:37:40;;;;;;;1.20;0.80;;;8.00;70.90;;;;;;4945321;28;20139;-76
2021/03/20 00:40:15;;;;;;;1.10;0.70;;;8.10;71.00;;;;;;4939452;28;20505;-76
2021/03/20 00:42:43;;;;;;;1.60;0.73;;;8.10;71.10;;;;;;4943220;28;20051;-77
2021/03/20 00:45:12;;;;;;;1.98;0.93;;;8.00;71.20;;;;;;4937572;28;20043;-76
2021/03/20 00:47:40;;;;;;;1.30;1.00;;;8.00;71.30;;;;;;4939603;28;20502;-77
2021/03/20 00:50:12;;;;;;;1.63;1.00;;;8.00;71.40;;;;;;4942617;28;20707;-76
2021/03/20 00:52:40;;;;;;;1.50;0.93;;;7.90;71.60;;;;;;4943417;28;20066;-76
2021/03/20 00:55:09;;;;;;;1.20;0.77;;;8.00;71.80;;;;;;4940413;28;20466;-76
2021/03/20 00:57:37;;;;;;;1.73;0.98;;;7.90;71.90;;;;;;4935653;28;20050;-76
2021/03/20 01:00:09;;;;;;;1.63;0.85;;;7.90;72.10;;;;;;4934884;28;20130;-76
2021/03/20 01:02:36;;;;;;;1.23;0.80;;;7.90;72.30;;;;;;4955179;28;20466;-76
2021/03/20 01:05:06;;;;;;;3.22;1.10;;;8.00;72.70;;;;;;4938656;28;20134;-76
2021/03/20 01:07:34;;;;;;;3.67;1.00;;;7.90;72.80;;;;;;4939579;28;20063;-76
2021/03/20 01:10:03;;;;;;;2.75;1.08;;;8.00;73.10;;;;;;4935233;28;20044;-76
2021/03/20 01:12:30;;;;;;;2.38;1.10;;;7.90;73.30;;;;;;4943992;28;20039;-76
2021/03/20 01:14:57;;;;;;;3.40;1.48;;;7.90;73.60;;;;;;4944808;28;20437;-76
2021/03/20 01:17:25;;;;;;;2.85;1.02;;;7.90;73.80;;;;;;4942445;28;20053;-76
2021/03/20 01:19:53;;;;;;;0.73;0.63;;;7.80;74.10;;;;;;4938674;28;20031;-76
2021/03/20 01:22:20;;;;;;;1.38;0.90;;;8.00;74.10;;;;;;4942297;28;20047;-77
2021/03/20 01:24:47;;;;;;;1.88;1.00;;;8.00;74.20;;;;;;4938138;28;20049;-76
2021/03/20 01:27:14;;;;;;;1.50;1.00;;;8.00;74.20;;;;;;4938112;28;20047;-77
2021/03/20 01:29:41;;;;;;;2.08;1.00;;;8.00;74.30;;;;;;4944471;28;20051;-77
2021/03/20 01:32:08;;;;;;;3.05;1.50;;;8.00;74.50;;;;;;4942099;28;20042;-76
2021/03/20 01:34:36;;;;;;;1.77;1.02;;;7.90;74.70;;;;;;4935033;28;20055;-76
2021/03/20 01:37:03;;;;;;;1.77;1.00;;;7.80;75.00;;;;;;4939970;29;20502;-77
2021/03/20 01:39:47;;;;;;;2.45;1.00;;;7.90;75.10;;;;;;4925434;28;20093;-76
2021/03/20 01:42:14;;;;;;;2.40;1.20;;;7.80;75.40;;;;;;4940918;28;20046;-76
2021/03/20 01:44:41;;;;;;;1.55;1.00;;;7.80;75.70;;;;;;4949581;28;20075;-77
2021/03/20 01:47:14;;;;;;;2.63;1.38;;;7.80;75.90;;;;;;4944648;28;20032;-77
2021/03/20 01:49:45;;;;;;;1.65;1.23;;;7.80;75.90;;;;;;4948182;28;20521;-76
2021/03/20 01:52:20;;;;;;;2.10;1.20;;;7.80;76.00;;;;;;4936529;28;20126;-77
2021/03/20 01:54:53;;;;;;;5.82;1.73;;;7.80;76.10;;;;;;4955837;28;20501;-77
2021/03/20 01:57:26;;;;;;;1.33;1.08;;;7.80;76.20;;;;;;4956574;28;20047;-76
2021/03/20 01:59:55;;;;;;;2.17;1.05;;;7.70;76.40;;;;;;4942691;28;20098;-77
2021/03/20 02:02:22;;;;;;;2.58;1.25;;;7.70;76.60;;;;;;4938145;28;20386;-76
2021/03/20 02:04:51;;;;;;;3.80;1.65;;;7.80;76.60;;;;;;4939231;28;20036;-76
2021/03/20 02:07:18;;;;;;;1.73;1.10;;;7.70;76.70;;;;;;4936075;28;20043;-76
2021/03/20 02:09:45;;;;;;;2.20;1.40;;;7.70;76.90;;;;;;4952887;28;20525;-77
2021/03/20 02:12:19;;;;;;;1.83;1.30;;;7.70;77.00;;;;;;4942411;28;20047;-78
2021/03/20 02:14:53;;;;;;;3.35;1.45;;;7.70;77.10;;;;;;4939128;28;20040;-77
2021/03/20 02:17:31;;;;;;;2.10;1.35;;;7.70;77.00;;;;;;4939714;28;20050;-77
2021/03/20 02:20:27;;;;;;;1.90;1.00;;;7.70;77.10;;;;;;4940201;28;20185;-77
2021/03/20 02:23:22;;;;;;;5.88;1.25;;;7.60;77.40;;;;;;4951491;28;20075;-77
2021/03/20 02:26:05;;;;;;;1.80;1.13;;;7.60;77.50;;;;;;4935379;28;20134;-77
2021/03/20 02:28:56;;;;;;;2.67;1.23;;;7.70;77.30;;;;;;4953298;28;20454;-77
2021/03/20 02:31:42;;;;;;;1.88;1.15;;;7.70;77.50;;;;;;4949140;28;20044;-77
2021/03/20 02:34:18;;;;;;;2.20;1.05;;;7.70;77.60;;;;;;4947134;28;20039;-77
2021/03/20 02:36:55;;;;;;;1.20;0.93;;;7.60;77.70;;;;;;4936028;28;20040;-77
2021/03/20 02:39:30;;;;;;;2.95;1.40;;;7.60;77.60;;;;;;4926157;28;20050;-77
2021/03/20 02:42:04;;;;;;;2.80;1.42;;;7.60;77.70;;;;;;4939558;28;20039;-80
2021/03/20 02:44:40;;;;;;;2.05;1.27;;;7.70;77.50;;;;;;4954363;28;20047;-76
2021/03/20 02:47:11;;;;;;;1.92;1.23;;;7.70;77.40;;;;;;4952763;28;20069;-77
2021/03/20 02:49:46;;;;;;;1.90;1.15;;;7.70;77.30;;;;;;4946227;28;20176;-77
2021/03/20 02:52:20;;;;;;;1.73;1.02;;;7.60;77.40;;;;;;4941410;28;20067;-77
2021/03/20 02:54:51;;;;;;;3.08;1.60;;;7.60;77.60;;;;;;4947078;28;20044;-77
2021/03/20 02:57:22;;;;;;;2.45;1.25;;;7.70;77.30;;;;;;4954580;28;20039;-77
2021/03/20 02:59:54;;;;;;;2.88;1.50;;;7.70;77.30;;;;;;4935362;28;20049;-77
2021/03/20 03:02:22;;;;;;;1.80;1.30;;;7.60;77.50;;;;;;4952164;28;20604;-77
2021/03/20 03:04:56;;;;;;;1.77;1.10;;;7.70;77.60;;;;;;4939740;28;20070;-77
2021/03/20 03:07:29;;;;;;;3.03;1.33;;;7.70;77.60;;;;;;4936338;28;20308;-77
2021/03/20 03:10:01;;;;;;;2.75;1.45;;;7.70;77.70;;;;;;4940637;28;20058;-77
2021/03/20 03:12:35;;;;;;;2.53;1.30;;;7.70;77.80;;;;;;4938014;28;20387;-77
2021/03/20 03:15:07;;;;;;;2.15;1.38;;;7.80;77.80;;;;;;4940460;28;20589;-77
2021/03/20 03:17:38;;;;;;;1.67;1.38;;;7.80;77.90;;;;;;4949123;28;20254;-77
2021/03/20 03:20:12;;;;;;;2.10;1.52;;;7.70;77.80;;;;;;4935838;28;20050;-77
2021/03/20 03:22:46;;;;;;;1.83;1.40;;;7.70;78.10;;;;;;4949902;28;20889;-77
2021/03/20 03:25:18;;;;;;;2.10;1.30;;;7.60;78.20;;;;;;4937893;28;20054;-77
2021/03/20 03:27:50;;;;;;;1.90;1.35;;;7.70;78.20;;;;;;4942796;28;20050;-77
2021/03/20 03:30:22;;;;;;;3.35;1.45;;;7.80;78.00;;;;;;4940892;28;20046;-77
2021/03/20 03:32:51;;;;;;;2.10;1.23;;;7.80;77.90;;;;;;4935656;28;20098;-77
2021/03/20 03:35:25;;;;;;;3.67;1.45;;;7.80;78.00;;;;;;4950142;28;20044;-77
2021/03/20 03:37:58;;;;;;;2.38;1.67;;;7.70;78.10;;;;;;4941315;28;20697;-77
2021/03/20 03:40:33;;;;;;;2.22;1.40;;;7.80;78.00;;;;;;4948845;28;20057;-77
2021/03/20 03:43:00;;;;;;;2.95;1.40;;;7.70;78.10;;;;;;4937079;28;20135;-77
2021/03/20 03:45:29;;;;;;;2.10;1.50;;;7.70;78.10;;;;;;4946954;28;20042;-77
2021/03/20 03:47:58;;;;;;;1.80;1.17;;;7.70;78.30;;;;;;4938247;28;20047;-77
2021/03/20 03:50:33;;;;;;;1.80;1.40;;;7.70;78.20;;;;;;4945661;28;20526;-77
2021/03/20 03:53:02;;;;;;;3.53;1.52;;;7.70;78.20;;;;;;4932424;28;20546;-77
2021/03/20 03:55:30;;;;;;;1.60;1.23;;;7.60;78.30;;;;;;4937482;28;20069;-77
2021/03/20 03:58:20;;;;;;;1.50;1.15;;;7.70;78.30;;;;;;4938962;28;20112;-77
2021/03/20 04:00:50;;;;;;;2.38;1.20;;;7.60;78.20;;;;;;4943724;28;20063;-77
2021/03/20 04:03:34;;;;;;;2.13;1.48;;;7.70;78.30;;;;;;4938367;28;20047;-77
2021/03/20 04:06:11;;;;;;;1.83;1.38;;;7.70;78.10;;;;;;4940720;28;20042;-77
2021/03/20 04:08:46;;;;;;;1.65;1.23;;;7.70;78.20;;;;;;4946985;28;20043;-77
2021/03/20 04:11:20;;;;;;;2.38;1.25;;;7.60;78.30;;;;;;4950095;28;20138;-77
2021/03/20 04:13:54;;;;;;;1.58;1.10;;;7.60;78.40;;;;;;4949830;28;20131;-78
2021/03/20 04:16:26;;;;;;;2.22;1.40;;;7.60;78.40;;;;;;4951061;28;20131;-78
2021/03/20 04:19:03;;;;;;;1.77;1.05;;;7.60;78.40;;;;;;4930445;28;21204;-77
2021/03/20 04:21:35;;;;;;;;;;;7.60;78.40;;;;;;4952470;28;20051;-78
2021/03/20 04:24:09;;;;;;;1.90;1.40;;;7.60;78.50;;;;;;4940863;28;19973;-78
2021/03/20 04:26:45;;;;;;;1.95;1.10;;;7.50;78.50;;;;;;4942380;28;20097;-77
2021/03/20 04:29:21;;;;;;;1.67;1.00;;;7.50;78.70;;;;;;4956679;28;20150;-78
2021/03/20 04:31:53;;;;;;;1.42;1.13;;;7.60;78.70;;;;;;4948432;28;20094;-78
2021/03/20 04:34:26;;;;;;;1.90;1.30;;;7.50;78.60;;;;;;4941125;28;20047;-78
2021/03/20 04:37:00;;;;;;;1.75;1.05;;;7.50;78.50;;;;;;4939074;28;20035;-77
2021/03/20 04:39:30;;;;;;;1.55;1.23;;;7.50;78.70;;;;;;4940871;28;20054;-77
2021/03/20 04:42:17;;;;;;;2.00;1.25;;;7.50;78.60;;;;;;4937629;28;20043;-77
2021/03/20 04:44:44;;;;;;;2.38;1.35;;;7.50;78.30;;;;;;4940546;28;20043;-77
2021/03/20 04:47:16;;;;;;;2.17;1.27;;;7.50;78.20;;;;;;4936991;28;20114;-78
2021/03/20 04:49:49;;;;;;;3.20;1.40;;;7.50;78.20;;;;;;4937958;28;20051;-78
2021/03/20 04:52:22;;;;;;;2.70;1.67;;;7.50;78.20;;;;;;4935705;28;20048;-77
2021/03/20 04:54:50;;;;;;;2.47;1.60;;;7.50;78.20;;;;;;4950027;28;20081;-77
2021/03/20 04:57:25;;;;;;;2.20;1.58;;;7.50;78.10;;;;;;4947955;28;20050;-77
2021/03/20 05:00:02;;;;;;;10.07;6.27;;;7.50;78.20;;;;;;4939322;28;20074;-77
2021/03/20 05:02:35;;;;;;;4.53;3.10;;;7.50;78.30;;;;;;4936715;28;20040;-77
2021/03/20 05:05:10;;;;;;;4.47;2.90;;;7.50;78.20;;;;;;4944973;28;20155;-77
2021/03/20 05:07:38;;;;;;;3.47;2.10;;;7.50;78.00;;;;;;4952141;28;20044;-77
2021/03/20 05:10:16;;;;;;;2.67;1.58;;;7.50;78.10;;;;;;4952773;28;20375;-79
2021/03/20 05:12:46;;;;;;;2.45;1.45;;;7.50;78.30;;;;;;4942113;28;20130;-77
2021/03/20 05:15:24;;;;;;;2.00;1.40;;;7.50;78.40;;;;;;4943111;28;20502;-77
2021/03/20 05:17:52;;;;;;;3.42;1.50;;;7.50;78.30;;;;;;4953243;28;20421;-78
2021/03/20 05:20:19;;;;;;;2.70;1.45;;;7.50;78.30;;;;;;4932289;28;20397;-77
2021/03/20 05:22:49;;;;;;;2.85;1.65;;;7.40;78.50;;;;;;4930514;28;20043;-77
2021/03/20 05:25:23;;;;;;;2.17;1.50;;;7.50;78.60;;;;;;4949537;28;20051;-78
2021/03/20 05:27:53;;;;;;;1.88;1.20;;;7.50;78.50;;;;;;4946071;28;20074;-77
2021/03/20 05:30:21;;;;;;;3.42;1.40;;;7.50;78.20;;;;;;4949635;28;20268;-77
2021/03/20 05:32:48;;;;;;;2.30;1.45;;;7.50;78.40;;;;;;4950234;28;20505;-77
2021/03/20 05:35:21;;;;;;;3.60;1.58;;;7.50;78.60;;;;;;4943333;28;20058;-77
2021/03/20 05:37:50;;;;;;;2.70;1.70;;;7.50;78.50;;;;;;4934637;28;20446;-77
2021/03/20 05:40:23;;;;;;;2.50;1.40;;;7.50;78.80;;;;;;4942458;28;20040;-77
2021/03/20 05:43:09;;;;;;;2.17;1.45;;;7.50;78.70;;;;;;4936943;28;20138;-77
2021/03/20 05:45:41;;;;;;;2.42;1.55;;;7.40;78.70;;;;;;4938266;28;20155;-77
2021/03/20 05:48:16;;;;;;;2.63;1.80;;;7.50;78.80;;;;;;4938284;28;20054;-77
2021/03/20 05:51:01;;;;;;;2.08;1.50;;;7.50;78.80;;;;;;4936606;28;20051;-78
2021/03/20 05:53:42;;;;;;;3.65;1.63;;;7.60;78.80;;;;;;4945565;28;20050;-77
2021/03/20 05:56:16;;;;;;;2.10;1.30;;;7.60;78.90;;;;;;4954818;28;20056;-77
2021/03/20 05:59:00;;;;;;;2.30;1.33;;;7.60;78.90;;;;;;4941228;28;20055;-77
2021/03/20 06:01:38;;;;;;;2.75;1.65;;;7.70;78.90;;;;;;4953851;28;20593;-77
2021/03/20 06:04:20;;;;;;;1.73;1.25;;;7.70;79.00;;;;;;4939045;28;20148;-77
2021/03/20 06:07:09;;;;;;;2.53;1.20;;;7.70;78.80;;;;;;4938651;28;20044;-77
2021/03/20 06:09:47;;;;;;;2.45;1.23;;;7.80;78.60;;;;;;4951149;28;20139;-77
2021/03/20 06:12:33;;;;;;;2.38;1.50;;;7.80;78.60;;;;;;4953299;28;20406;-77
2021/03/20 06:15:11;;;;;;;2.07;1.40;;;7.80;78.30;;;;;;4937929;28;20095;-77
2021/03/20 06:18:00;;;;;;;1.85;1.50;;;7.90;78.30;;;;;;4937752;28;20043;-78
2021/03/20 06:20:36;;;;;;;1.80;1.27;;;7.90;78.40;;;;;;4944618;28;20450;-78
2021/03/20 06:23:28;;;;;;;1.85;1.30;;;7.90;78.50;;;;;;4939209;28;20817;-77
2021/03/20 06:26:01;;;;;;;2.63;1.50;;;7.90;78.60;;;;;;4955621;28;20074;-77
2021/03/20 06:28:34;;;;;;;1.88;1.23;;;7.90;78.40;;;;;;4941378;28;20473;-77
2021/03/20 06:31:06;;;;;;;2.30;1.55;;;7.90;78.40;;;;;;4937204;28;20043;-78
2021/03/20 06:33:41;;;;;;;4.28;2.17;;;8.00;78.40;;;;;;4943208;28;20577;-78
2021/03/20 06:36:14;;;;;;;3.97;2.55;;;8.00;78.40;;;;;;4939952;28;20043;-78
2021/03/20 06:38:46;;;;;;;4.03;3.00;;;8.00;78.50;;;;;;4943311;28;20047;-77
2021/03/20 06:41:23;;;;;;;5.80;3.65;;;8.10;78.50;;;;;;4935402;28;20119;-78
2021/03/20 06:43:55;;;;;;;6.65;3.88;;;8.20;78.50;;;;;;4936736;28;20662;-77
2021/03/20 06:46:29;;;;;;;5.47;3.35;;;8.20;78.60;;;;;;4947426;28;20409;-77
2021/03/20 06:48:58;;;;;;;5.05;3.20;;;8.10;78.40;;;;;;4939622;28;20098;-78
2021/03/20 06:51:27;;;;;;;3.30;2.38;;;8.10;78.40;;;;;;4936529;28;20039;-77
2021/03/20 06:53:59;;;;;;;3.00;1.77;;;8.10;78.40;;;;;;4928767;28;20043;-77
2021/03/20 06:56:30;;;;;;;2.92;1.67;;;8.10;78.30;;;;;;4950915;28;20130;-78
2021/03/20 06:58:58;;;;;;;1.80;1.20;;;8.20;77.80;;;;;;4939434;28;20035;-77
2021/03/20 07:01:34;;;;;;;2.58;1.40;;;8.20;77.70;;;;;;4934239;28;20047;-79
2021/03/20 07:04:24;;;;;;;2.53;1.88;;;8.30;78.10;;;;;;4956639;28;20047;-79
2021/03/20 07:07:05;;;;;;;3.10;1.95;;;8.40;78.40;;;;;;4946137;28;20853;-79
2021/03/20 07:09:34;;;;;;;3.40;2.17;;;8.40;78.60;;;;;;4941357;28;20132;-79
2021/03/20 07:12:06;;;;;;;2.70;2.10;;;8.50;78.60;;;;;;4941256;28;20047;-79
2021/03/20 07:14:38;;;;;;;3.10;2.15;;;8.50;78.50;;;;;;4937552;28;20446;-78
2021/03/20 07:17:08;;;;;;;3.03;1.98;;;8.50;78.20;;;;;;4936430;28;20415;-79
2021/03/20 07:19:51;;;;;;;4.18;2.42;;;8.60;78.40;;;;;;4943016;28;20118;-79
2021/03/20 07:22:28;;;;;;;2.38;1.90;;;8.60;78.10;;;;;;4930027;28;20051;-79
2021/03/20 07:24:56;;;;;;;;;;;8.60;78.30;;;;;;4954249;28;20142;-79
2021/03/20 07:27:30;;;;;;;;;;;8.70;77.80;;;;;;4937159;28;19930;-80
2021/03/20 07:29:59;;;;;;;3.03;2.13;;;8.70;77.50;;;;;;4936063;28;19938;-79
2021/03/20 07:32:38;;;;;;;3.35;1.50;;;8.80;77.40;;;;;;4939390;28;20572;-79
2021/03/20 07:35:24;;;;;;;4.03;1.92;;;8.80;77.40;;;;;;4936373;28;20040;-79
2021/03/20 07:37:53;;;;;;;4.30;2.25;;;8.80;77.10;;;;;;4936863;28;20049;-79
2021/03/20 07:40:31;;;;;;;2.22;1.75;;;8.90;77.10;;;;;;4950167;28;20130;-79
2021/03/20 07:43:13;;;;;;;4.60;1.88;;;9.00;77.00;;;;;;4929219;28;20506;-79
2021/03/20 07:45:42;;;;;;;5.18;2.22;;;9.00;77.30;;;;;;4943841;28;20043;-79
2021/03/20 07:48:21;;;;;;;2.42;2.05;;;9.00;77.10;;;;;;4936409;28;20040;-79
2021/03/20 07:51:00;;;;;;;4.85;1.98;;;9.00;76.70;;;;;;4946652;28;20035;-79
2021/03/20 07:53:28;;;;;;;3.72;1.98;;;9.10;76.90;;;;;;4957389;28;20050;-79
2021/03/20 07:56:03;;;;;;;4.45;2.20;;;9.10;77.10;;;;;;4943829;28;20049;-79
2021/03/20 07:58:39;;;;;;;6.22;2.00;;;9.20;76.80;;;;;;4945775;28;20580;-79
2021/03/20 08:01:12;;;;;;;3.63;1.77;;;9.20;76.20;;;;;;4945255;28;20082;-79
2021/03/20 08:03:54;;;;;;;4.20;2.10;;;9.20;76.10;;;;;;4939061;28;20615;-79
2021/03/20 08:06:25;;;;;;;4.40;2.10;;;9.30;76.20;;;;;;4923959;29;20043;-80
2021/03/20 08:09:09;;;;;;;3.03;2.25;;;9.30;76.40;;;;;;4953963;28;20051;-79
2021/03/20 08:11:36;;;;;;;3.35;2.13;;;9.40;76.50;;;;;;4940336;28;20158;-78
2021/03/20 08:14:10;;;;;;;4.07;2.03;;;9.40;76.60;;;;;;4941978;28;20039;-80
2021/03/20 08:16:38;;;;;;;2.75;2.20;;;9.50;76.30;;;;;;4942139;28;20058;-90
2021/03/20 08:19:12;;;;;;;4.65;1.88;;;9.50;76.00;;;;;;4963001;28;20397;-78
2021/03/20 08:21:58;;;;;;;3.08;1.88;;;9.60;75.90;;;;;;4945708;28;20039;-79
2021/03/20 08:24:41;;;;;;;5.32;2.60;;;9.60;76.30;;;;;;4946087;28;20282;-78
2021/03/20 08:27:20;;;;;;;3.95;2.25;;;9.70;76.20;;;;;;4948030;28;20351;-79
2021/03/20 08:30:13;;;;;;;4.10;2.25;;;9.80;75.80;;;;;;4940726;28;20349;-78
2021/03/20 08:32:58;;;;;;;4.93;2.47;;;9.80;75.00;;;;;;4937934;29;20104;-78
2021/03/20 08:35:34;;;;;;;4.25;2.28;;;9.80;75.70;;;;;;4938983;28;20043;-80
2021/03/20 08:38:30;;;;;;;3.75;2.38;;;9.90;75.90;;;;;;4948731;28;20039;-79
2021/03/20 08:41:02;;;;;;;3.25;1.98;;;10.00;74.70;;;;;;4939159;28;20057;-79
2021/03/20 08:43:44;;;;;;;2.45;1.60;;;10.00;74.60;;;;;;4937697;28;20560;-80
2021/03/20 08:46:24;;;;;;;3.17;2.00;;;10.00;74.30;;;;;;4933641;28;20051;-79
2021/03/20 08:49:01;;;;;;;2.13;1.70;;;10.10;73.70;;;;;;4938756;28;20057;-81
2021/03/20 08:51:41;;;;;;;2.63;1.80;;;10.10;73.40;;;;;;4938260;28;20494;-80
2021/03/20 08:54:23;;;;;;;1.70;1.50;;;10.10;73.10;;;;;;4942924;28;20036;-80
2021/03/20 08:57:03;;;;;;;3.10;2.25;;;10.10;73.30;;;;;;4952306;28;20498;-81
2021/03/20 08:59:33;;;;;;;4.32;2.25;;;10.20;73.20;;;;;;4934814;28;20126;-82
2021/03/20 09:02:17;;;;;;;3.28;2.38;;;10.30;73.30;;;;;;4952658;28;20059;-85
2021/03/20 09:04:45;;;;;;;4.03;2.20;;;10.30;73.40;;;;;;4937448;28;20066;-80
2021/03/20 09:07:20;;;;;;;4.95;2.00;;;10.20;72.70;;;;;;4944951;28;20043;-79
2021/03/20 09:09:51;;;;;;;16.67;3.35;;;10.30;72.80;;;;;;4958403;28;20065;-84
2021/03/20 09:12:24;;;;;;;9.55;2.63;;;10.30;72.30;;;;;;4937195;28;20107;-84
2021/03/20 09:14:52;;;;;;;6.00;2.38;;;10.40;72.00;;;;;;4950594;28;20051;-84
2021/03/20 09:17:26;;;;;;;3.92;2.08;;;10.40;72.00;;;;;;4940916;28;20525;-80
2021/03/20 09:19:55;;;;;;;3.85;2.22;;;10.40;71.80;;;;;;4941650;28;20329;-78
2021/03/20 09:22:29;;;;;;;3.03;1.75;;;10.50;71.40;;;;;;4939614;28;20044;-80
2021/03/20 09:25:03;;;;;;;3.17;1.80;;;10.50;71.40;;;;;;4948660;28;20058;-79
2021/03/20 09:28:02;;;;;;;1.85;1.60;;;10.60;70.90;;;;;;4913115;28;20502;-79
2021/03/20 09:30:33;;;;;;;2.75;1.60;;;10.60;71.10;;;;;;4921161;28;20074;-79
2021/03/20 09:33:05;;;;;;;2.97;2.10;;;10.60;71.00;;;;;;4923370;28;20058;-79
2021/03/20 09:35:40;;;;;;;3.42;1.92;;;10.70;70.60;;;;;;4907398;28;20039;-79
2021/03/20 09:38:09;;;;;;;2.83;2.05;;;10.60;70.40;;;;;;4906341;28;20548;-79
2021/03/20 09:40:42;;;;;;;3.92;1.70;;;10.70;70.60;;;;;;4905415;28;20039;-81
2021/03/20 09:43:32;;;;;;;3.45;1.63;;;11.00;69.80;;;;;;4907455;28;20603;-80
2021/03/20 09:46:34;;;;;;;2.10;1.40;;;11.10;68.90;;;;;;4913227;28;20412;-79
2021/03/20 09:49:25;;;;;;;2.33;1.85;;;11.10;68.00;;;;;;4928517;28;20552;-81
2021/03/20 09:51:59;;;;;;;2.35;1.48;;;11.20;67.60;;;;;;4897896;28;20047;-80
2021/03/20 09:54:40;;;;;;;4.90;1.70;;;11.20;66.90;;;;;;4908135;28;20576;-81
2021/03/20 09:57:37;;;;;;;1.77;1.35;;;11.30;66.20;;;;;;4907905;28;20044;-80
2021/03/20 10:00:06;;;;;;;3.13;1.80;;;11.40;66.40;;;;;;4906848;28;20138;-79
2021/03/20 10:02:48;;;;;;;1.50;1.17;;;11.60;65.70;;;;;;4909447;28;21196;-81
2021/03/20 10:05:26;;;;;;;1.88;1.45;;;11.70;64.10;;;;;;4922724;28;20043;-80
2021/03/20 10:07:59;;;;;;;4.25;1.60;;;11.80;63.00;;;;;;4905786;28;20083;-80
2021/03/20 10:10:45;;;;;;;2.33;1.50;;;11.70;63.20;;;;;;4910812;28;20150;-84
2021/03/20 10:13:22;;;;;;;4.43;2.95;;;11.80;64.00;;;;;;4923858;28;20109;-81
2021/03/20 10:15:55;;;;;;;;;;;11.90;64.10;;;;;;4925700;28;20055;-82
2021/03/20 10:18:29;;;;;;;3.70;1.55;;;12.20;62.30;;;;;;4909562;28;19927;-81
2021/03/20 10:21:15;;;;;;;2.00;1.42;;;12.30;62.40;;;;;;4942765;28;20062;-82
2021/03/20 10:23:53;;;;;;;2.22;1.80;;;12.30;61.80;;;;;;4925642;28;20239;-82
2021/03/20 10:26:28;;;;;;;4.75;3.55;;;12.40;62.20;;;;;;4928042;28;20047;-80
2021/03/20 10:28:58;;;;;;;3.65;3.05;;;12.50;64.20;;;;;;4929222;28;20047;-81
2021/03/20 10:31:28;;;;;;;2.97;2.35;;;12.60;65.70;;;;;;4914079;28;20800;-81
2021/03/20 10:34:05;;;;;;;2.90;2.33;;;12.60;66.10;;;;;;4927639;28;20055;-80
2021/03/20 10:36:38;;;;;;;2.42;2.03;;;12.50;65.40;;;;;;4911977;28;20490;-81
2021/03/20 10:39:27;;;;;;;3.35;2.47;;;12.40;65.20;;;;;;4911430;28;20141;-80
2021/03/20 10:41:59;;;;;;;3.77;2.50;;;12.40;65.50;;;;;;4924723;28;20513;-80
2021/03/20 10:44:32;;;;;;;3.83;2.17;;;12.30;65.20;;;;;;4912062;28;20047;-82
2021/03/20 10:47:02;;;;;;;2.90;2.30;;;12.30;65.40;;;;;;4930377;28;20464;-82
2021/03/20 10:49:34;;;;;;;6.25;2.42;;;12.00;65.80;;;;;;4911551;28;20162;-82
2021/03/20 10:52:03;;;;;;;4.18;2.22;;;12.20;65.30;;;;;;4927880;28;20482;-78
2021/03/20 10:54:33;;;;;;;3.83;1.92;;;12.40;64.70;;;;;;4926778;28;20043;-78
2021/03/20 10:57:04;;;;;;;3.33;2.38;;;12.60;64.20;;;;;;4908900;28;20710;-80
2021/03/20 10:59:35;;;;;;;5.93;2.00;;;12.50;64.10;;;;;;4932103;28;20047;-80
2021/03/20 11:02:20;;;;;;;5.32;2.47;;;12.60;63.20;;;;;;4924641;28;20406;-78
2021/03/20 11:04:47;;;;;;;3.95;2.10;;;12.90;62.70;;;;;;4922523;28;20047;-76
2021/03/20 11:07:18;;;;;;;5.72;2.33;;;13.00;64.00;;;;;;4910131;28;21110;-77
2021/03/20 11:09:46;;;;;;;3.05;2.15;;;13.00;63.10;;;;;;4943262;28;20039;-78
2021/03/20 11:12:19;;;;;;;3.90;2.35;;;12.80;62.10;;;;;;4946860;28;20085;-79
2021/03/20 11:14:51;;;;;;;2.38;1.80;;;12.90;62.60;;;;;;4935401;28;20061;-78
2021/03/20 11:17:21;;;;;;;2.85;2.00;;;12.80;62.30;;;;;;4942520;28;20458;-78
2021/03/20 11:19:59;;;;;;;2.75;1.98;;;12.80;62.00;;;;;;4942260;28;20171;-77
2021/03/20 11:22:37;;;;;;;3.50;1.90;;;12.30;62.40;;;;;;4958902;28;20075;-75
2021/03/20 11:25:09;;;;;;;2.58;1.98;;;12.00;62.50;;;;;;4951400;28;20585;-78
2021/03/20 11:27:40;;;;;;;3.38;1.98;;;12.20;63.00;;;;;;4957323;28;20050;-79
2021/03/20 11:30:16;;;;;;;3.83;1.85;;;12.50;62.50;;;;;;4957237;28;20530;-81
2021/03/20 11:32:47;;;;;;;3.13;2.05;;;12.80;62.90;;;;;;4936952;28;20043;-79
2021/03/20 11:35:21;;;;;;;2.75;1.95;;;12.90;61.40;;;;;;4940192;28;20506;-80
2021/03/20 11:37:49;;;;;;;3.05;2.10;;;12.80;60.90;;;;;;4921810;29;20099;-75
2021/03/20 11:40:27;;;;;;;2.35;1.92;;;12.70;61.20;;;;;;4953573;28;20070;-75
2021/03/20 11:42:58;;;;;;;2.97;2.42;;;12.60;61.30;;;;;;4957214;28;20524;-79
2021/03/20 11:45:28;;;;;;;3.22;2.03;;;12.40;61.70;;;;;;4941767;28;20047;-78
2021/03/20 11:48:00;;;;;;;3.28;2.30;;;12.20;61.80;;;;;;4937322;28;20079;-79
2021/03/20 11:50:31;;;;;;;2.92;1.90;;;12.40;62.30;;;;;;4927662;29;20145;-75
2021/03/20 11:53:03;;;;;;;2.53;1.75;;;12.40;62.60;;;;;;4950821;28;20048;-78
2021/03/20 11:55:36;;;;;;;2.83;2.20;;;12.50;61.80;;;;;;4940158;28;20035;-79
2021/03/20 11:58:06;;;;;;;2.85;2.08;;;12.30;61.00;;;;;;4945129;28;20047;-78
2021/03/20 12:00:38;;;;;;;3.47;2.28;;;12.10;61.30;;;;;;4955593;28;20073;-80
2021/03/20 12:03:24;;;;;;;3.45;2.33;;;12.00;61.70;;;;;;4939342;28;20541;-79
2021/03/20 12:06:11;;;;;;;3.40;2.53;;;12.30;61.40;;;;;;4945652;28;20058;-81
2021/03/20 12:08:42;;;;;;;4.50;3.42;;;12.80;60.80;;;;;;4960458;28;20054;-77
2021/03/20 12:11:12;;;;;;;7.43;5.18;;;12.80;59.70;;;;;;4938303;28;20094;-76
2021/03/20 12:13:44;;;;;;;7.65;4.40;;;12.60;60.30;;;;;;4939126;28;20117;-77
2021/03/20 12:16:28;;;;;;;5.32;3.60;;;12.30;60.80;;;;;;4943649;28;20050;-75
2021/03/20 12:19:06;;;;;;;4.82;2.75;;;12.20;61.20;;;;;;4951587;28;20055;-78
2021/03/20 12:21:49;;;;;;;3.17;2.50;;;12.40;60.70;;;;;;4955560;28;20186;-76
2021/03/20 12:24:23;;;;;;;5.90;2.33;;;12.40;60.70;;;;;;4942754;28;20043;-77
2021/03/20 12:27:25;;;;;;;3.83;2.58;;;12.40;60.80;;;;;;4948643;28;20063;-77
2021/03/20 12:29:59;;;;;;;3.88;2.50;;;12.30;61.00;;;;;;4957375;28;20047;-77
2021/03/20 12:32:34;;;;;;;2.65;1.88;;;12.20;61.10;;;;;;4946638;28;20063;-76
2021/03/20 12:35:19;;;;;;;2.42;1.92;;;12.20;60.50;;;;;;4939789;28;20043;-78
2021/03/20 12:37:47;;;;;;;2.63;1.73;;;12.40;60.20;;;;;;4940446;28;20051;-76
2021/03/20 12:40:17;;;;;;;2.22;1.63;;;12.70;59.40;;;;;;4938991;28;20115;-85
2021/03/20 12:42:45;;;;;;;1.95;1.60;;;12.90;59.80;;;;;;4942993;28;20043;-79
2021/03/20 12:45:20;;;;;;;2.45;1.92;;;13.20;60.10;;;;;;4940648;29;20095;-81
2021/03/20 12:47:48;;;;;;;3.70;2.23;;;13.40;59.50;;;;;;4941014;28;20103;-78
2021/03/20 12:50:16;;;;;;;2.60;2.13;;;13.40;59.80;;;;;;4939844;28;20297;-83
2021/03/20 12:52:43;;;;;;;3.40;2.63;;;13.10;61.00;;;;;;4950015;28;20145;-82
2021/03/20 12:55:12;;;;;;;3.17;2.65;;;12.90;61.50;;;;;;4952537;28;20039;-83
2021/03/20 12:57:41;;;;;;;4.65;3.20;;;12.60;61.80;;;;;;4945151;28;20051;-83
2021/03/20 13:00:16;;;;;;;3.88;3.08;;;12.30;62.30;;;;;;4945781;28;20407;-82
2021/03/20 13:02:43;;;;;;;3.97;3.10;;;12.30;62.80;;;;;;4940646;28;20118;-83
2021/03/20 13:05:16;;;;;;;3.47;2.88;;;12.70;62.20;;;;;;4939495;28;20052;-83
2021/03/20 13:07:44;;;;;;;2.67;2.17;;;13.00;61.90;;;;;;4958166;28;20200;-84
2021/03/20 13:10:13;;;;;;;3.38;2.00;;;13.30;61.50;;;;;;4940717;28;20457;-81
2021/03/20 13:12:41;;;;;;;2.88;2.45;;;13.60;60.80;;;;;;4937958;28;20326;-78
2021/03/20 13:15:09;;;;;;;4.22;2.92;;;13.70;60.70;;;;;;4934343;28;20381;-76
2021/03/20 13:17:37;;;;;;;2.92;2.25;;;13.90;60.40;;;;;;4927400;28;20050;-76
2021/03/20 13:20:07;;;;;;;3.65;2.83;;;14.20;59.30;;;;;;4955279;28;20043;-83
2021/03/20 13:22:34;;;;;;;4.63;2.33;;;14.20;58.80;;;;;;4942267;28;20061;-76
2021/03/20 13:25:02;;;;;;;4.38;2.42;;;14.20;58.00;;;;;;4939851;28;20050;-76
2021/03/20 13:27:30;;;;;;;3.13;1.90;;;14.20;57.90;;;;;;4944671;28;20039;-76
2021/03/20 13:29:59;;;;;;;4.93;3.08;;;14.30;57.40;;;;;;4939825;28;20043;-76